Time;durP1;ratioP1;P1;durP2;ratioP2;P2;SDS_P1;SDS_P2;PMS_P1;PMS_P2;Temp;Humidity;BMP_temperature;BMP_pressure;BME280_temperature;BME280_humidity;BME280_pressure;Samples;Min_cycle;Max_cycle;Signal;HPM_P1;HPM_P2
2021/01/24 00:02:10;;;;;;;1.30;1.20;;;2.40;96.90;;;;;;5045329;28;20242;-73
2021/01/24 00:04:38;;;;;;;2.47;1.50;;;2.40;99.90;;;;;;5041025;28;20272;-74
2021/01/24 00:07:05;;;;;;;1.30;1.20;;;2.40;99.90;;;;;;5044675;28;20229;-72
2021/01/24 00:09:33;;;;;;;1.60;1.50;;;2.40;99.90;;;;;;5028532;28;20225;-73
2021/01/24 00:12:00;;;;;;;1.58;1.20;;;2.40;99.90;;;;;;5032561;28;20214;-73
2021/01/24 00:14:27;;;;;;;1.30;1.20;;;2.40;99.90;;;;;;5031654;28;21092;-75
2021/01/24 00:16:55;;;;;;;1.45;1.35;;;2.40;99.80;;;;;;5039417;28;20727;-76
2021/01/24 00:19:22;;;;;;;1.10;1.10;;;2.40;97.50;;;;;;5036710;28;20203;-73
2021/01/24 00:21:50;;;;;;;1.30;1.20;;;2.40;96.80;;;;;;5032812;28;20213;-73
2021/01/24 00:24:18;;;;;;;1.35;1.10;;;2.40;97.80;;;;;;5058917;28;20548;-74
2021/01/24 00:26:45;;;;;;;1.20;1.10;;;2.50;96.40;;;;;;5044976;28;20250;-73
2021/01/24 00:29:12;;;;;;;1.25;1.15;;;2.50;95.30;;;;;;5044901;28;20226;-73
2021/01/24 00:31:39;;;;;;;1.20;1.00;;;2.40;92.50;;;;;;5043682;28;20233;-73
2021/01/24 00:34:07;;;;;;;1.40;1.30;;;2.30;94.50;;;;;;5046946;28;20229;-72
2021/01/24 00:36:34;;;;;;;1.05;1.00;;;2.30;95.10;;;;;;5042774;28;20582;-72
2021/01/24 00:39:04;;;;;;;1.50;1.40;;;2.30;96.90;;;;;;5043608;28;20219;-74
2021/01/24 00:41:32;;;;;;;1.50;1.40;;;2.30;95.20;;;;;;5046339;28;20818;-72
2021/01/24 00:43:59;;;;;;;1.50;1.40;;;2.30;96.30;;;;;;5045662;28;20214;-72
2021/01/24 00:46:26;;;;;;;1.35;1.25;;;2.30;96.50;;;;;;5043466;28;20249;-74
2021/01/24 00:48:54;;;;;;;1.30;1.20;;;2.40;92.80;;;;;;5044193;28;20213;-72
2021/01/24 00:51:21;;;;;;;1.33;1.23;;;2.30;92.30;;;;;;5046149;28;20228;-73
2021/01/24 00:53:48;;;;;;;1.20;1.13;;;2.30;93.90;;;;;;5043377;28;20228;-73
2021/01/24 00:56:16;;;;;;;1.55;1.40;;;2.30;93.10;;;;;;5052285;28;20231;-73
2021/01/24 00:58:43;;;;;;;1.40;1.30;;;2.40;94.30;;;;;;5049064;28;20268;-73
2021/01/24 01:01:11;;;;;;;1.40;1.30;;;2.30;95.10;;;;;;5047708;28;20213;-73
2021/01/24 01:03:38;;;;;;;1.27;1.17;;;2.30;97.50;;;;;;5048301;28;20214;-73
2021/01/24 01:06:05;;;;;;;2.40;1.52;;;2.30;97.80;;;;;;5044765;28;20239;-74
2021/01/24 01:08:32;;;;;;;1.70;1.60;;;2.40;98.70;;;;;;5053988;28;20267;-73
2021/01/24 01:11:00;;;;;;;2.05;1.85;;;2.30;94.40;;;;;;5058592;28;20214;-72
2021/01/24 01:13:27;;;;;;;1.70;1.42;;;2.20;95.60;;;;;;5052119;28;21057;-73
2021/01/24 01:15:55;;;;;;;1.40;1.30;;;2.40;97.30;;;;;;5048487;28;20228;-74
2021/01/24 01:18:22;;;;;;;1.55;1.40;;;2.40;91.50;;;;;;5050212;28;20214;-74
2021/01/24 01:20:49;;;;;;;1.60;1.50;;;2.40;90.10;;;;;;5045735;28;20251;-73
2021/01/24 01:23:16;;;;;;;1.58;1.48;;;2.30;90.50;;;;;;5060723;28;20214;-74
2021/01/24 01:25:43;;;;;;;1.63;1.50;;;2.40;93.20;;;;;;5051820;28;20229;-74
2021/01/24 01:28:10;;;;;;;2.30;1.77;;;2.40;85.40;;;;;;5047005;28;20673;-73
2021/01/24 01:30:38;;;;;;;1.48;1.38;;;2.50;76.20;;;;;;5048409;28;20221;-73
2021/01/24 01:33:05;;;;;;;1.50;1.40;;;2.40;72.30;;;;;;5068119;28;20635;-74
2021/01/24 01:35:32;;;;;;;1.63;1.52;;;2.40;76.40;;;;;;5055351;28;20327;-73
2021/01/24 01:38:00;;;;;;;1.75;1.65;;;2.30;76.30;;;;;;5033981;28;20220;-73
2021/01/24 01:40:27;;;;;;;1.70;1.60;;;2.30;80.60;;;;;;5052546;28;20213;-75
2021/01/24 01:42:56;;;;;;;1.70;1.35;;;2.30;80.70;;;;;;5046378;28;20308;-76
2021/01/24 01:45:24;;;;;;;1.50;1.40;;;2.30;83.60;;;;;;5044788;28;20213;-75
2021/01/24 01:47:52;;;;;;;1.30;1.00;;;2.30;79.30;;;;;;5045320;28;20217;-75
2021/01/24 01:50:20;;;;;;;1.30;1.20;;;2.30;81.70;;;;;;5045702;28;20235;-74
2021/01/24 01:52:48;;;;;;;0.98;0.90;;;2.20;77.70;;;;;;5042073;28;20672;-75
2021/01/24 01:55:15;;;;;;;0.90;0.90;;;2.20;89.70;;;;;;5047181;28;20277;-73
2021/01/24 01:57:42;;;;;;;0.80;0.80;;;2.30;93.00;;;;;;5045076;28;20267;-75
2021/01/24 02:00:10;;;;;;;0.60;0.60;;;2.30;89.90;;;;;;5046078;28;20263;-74
2021/01/24 02:02:58;;;;;;;1.13;0.70;;;2.30;92.30;;;;;;5039663;28;20225;-73
2021/01/24 02:05:37;;;;;;;0.60;0.60;;;2.40;92.40;;;;;;5046111;28;20317;-74
2021/01/24 02:08:09;;;;;;;0.60;0.60;;;2.40;94.00;;;;;;5045859;28;20221;-75
2021/01/24 02:10:41;;;;;;;0.95;0.80;;;2.60;94.00;;;;;;5047737;28;20224;-74
2021/01/24 02:13:22;;;;;;;0.50;0.50;;;2.70;92.50;;;;;;5047878;28;20208;-74
2021/01/24 02:15:49;;;;;;;0.50;0.50;;;2.70;76.60;;;;;;5060243;28;20279;-74
2021/01/24 02:18:20;;;;;;;0.50;0.50;;;2.70;73.20;;;;;;5046101;28;20213;-75
2021/01/24 02:20:57;;;;;;;0.60;0.60;;;2.60;65.90;;;;;;5043727;28;20215;-75
2021/01/24 02:23:27;;;;;;;0.93;0.50;;;2.70;66.30;;;;;;5046033;28;20213;-75
2021/01/24 02:25:59;;;;;;;0.70;0.40;;;2.70;43.00;;;;;;5053954;28;20932;-75
2021/01/24 02:28:33;;;;;;;0.40;0.40;;;2.80;28.60;;;;;;5044319;28;20206;-76
2021/01/24 02:31:02;;;;;;;0.40;0.40;;;2.80;1.00;;;;;;5053978;28;20242;-75
2021/01/24 02:33:31;;;;;;;0.40;0.40;;;2.90;1.00;;;;;;5052909;28;20625;-75
2021/01/24 02:36:01;;;;;;;0.40;0.40;;;2.90;1.00;;;;;;5048794;28;20245;-75
2021/01/24 02:38:29;;;;;;;0.40;0.40;;;2.90;1.00;;;;;;5043626;28;20214;-75
2021/01/24 02:40:58;;;;;;;0.40;0.40;;;2.90;1.00;;;;;;5048423;28;20241;-75
2021/01/24 02:43:27;;;;;;;0.40;0.40;;;3.00;1.00;;;;;;5042307;28;20206;-73
2021/01/24 02:45:54;;;;;;;0.40;0.40;;;3.10;1.00;;;;;;5046838;28;20319;-75
2021/01/24 02:48:22;;;;;;;0.40;0.40;;;3.00;1.00;;;;;;5054674;28;20220;-76
2021/01/24 02:50:50;;;;;;;0.50;0.50;;;2.90;1.00;;;;;;5043208;28;20242;-75
2021/01/24 02:53:18;;;;;;;0.40;0.40;;;2.90;1.00;;;;;;5043997;28;20957;-75
2021/01/24 02:55:45;;;;;;;0.50;0.50;;;2.90;1.00;;;;;;5046899;28;20226;-75
2021/01/24 02:58:13;;;;;;;0.52;0.52;;;2.90;1.00;;;;;;5043264;28;20210;-74
2021/01/24 03:00:42;;;;;;;0.80;0.80;;;2.80;1.00;;;;;;5046321;28;20244;-74
2021/01/24 03:03:09;;;;;;;0.60;0.60;;;2.70;1.00;;;;;;5046099;28;20267;-74
2021/01/24 03:05:37;;;;;;;0.80;0.80;;;2.70;1.00;;;;;;5055736;28;20234;-75
2021/01/24 03:08:05;;;;;;;0.80;0.70;;;2.70;1.00;;;;;;5043119;28;20214;-73
2021/01/24 03:10:32;;;;;;;0.60;0.60;;;2.80;1.00;;;;;;5052068;28;20283;-74
2021/01/24 03:13:04;;;;;;;0.70;0.70;;;2.80;1.00;;;;;;5044197;28;20587;-74
2021/01/24 03:15:32;;;;;;;0.73;0.70;;;2.80;1.00;;;;;;5043965;28;20292;-75
2021/01/24 03:18:01;;;;;;;1.73;0.50;;;2.90;1.00;;;;;;5045632;28;20222;-73
2021/01/24 03:20:30;;;;;;;0.57;0.57;;;2.80;1.00;;;;;;5045373;28;20202;-76
2021/01/24 03:22:59;;;;;;;0.60;0.60;;;2.80;1.00;;;;;;5029545;28;20316;-74
2021/01/24 03:25:26;;;;;;;0.75;0.75;;;2.80;1.00;;;;;;5048770;28;20242;-75
2021/01/24 03:27:53;;;;;;;0.70;0.70;;;2.80;1.00;;;;;;5054934;28;20671;-75
2021/01/24 03:30:21;;;;;;;0.70;0.70;;;2.90;1.00;;;;;;5049237;28;20220;-75
2021/01/24 03:32:49;;;;;;;1.98;0.82;;;2.90;1.00;;;;;;5045171;28;20225;-75
2021/01/24 03:35:16;;;;;;;1.10;1.00;;;2.80;1.00;;;;;;5051444;28;20226;-73
2021/01/24 03:37:43;;;;;;;1.20;1.10;;;2.70;1.00;;;;;;5037055;28;20215;-74
2021/01/24 03:40:12;;;;;;;1.17;1.10;;;2.60;1.00;;;;;;5046820;28;20206;-74
2021/01/24 03:42:39;;;;;;;1.20;1.10;;;2.50;1.00;;;;;;5044806;28;20213;-74
2021/01/24 03:45:08;;;;;;;1.13;1.00;;;2.40;1.00;;;;;;5052145;28;20208;-73
2021/01/24 03:47:35;;;;;;;1.80;1.30;;;2.40;1.00;;;;;;5046323;28;20241;-74
2021/01/24 03:50:03;;;;;;;1.10;1.00;;;2.40;1.00;;;;;;5046928;28;20224;-72
2021/01/24 03:52:30;;;;;;;1.20;1.10;;;2.30;1.00;;;;;;5045197;28;20218;-73
2021/01/24 03:54:57;;;;;;;1.40;1.23;;;2.40;1.00;;;;;;5047193;28;20294;-73
2021/01/24 03:57:26;;;;;;;1.15;1.05;;;2.40;1.00;;;;;;5043879;28;20287;-74
2021/01/24 03:59:54;;;;;;;1.30;1.20;;;2.40;1.00;;;;;;5051548;28;20212;-74
2021/01/24 04:02:21;;;;;;;1.38;1.27;;;2.20;1.00;;;;;;5044907;28;20271;-73
2021/01/24 04:04:49;;;;;;;1.50;1.30;;;1.90;1.00;;;;;;5067493;28;20216;-73
2021/01/24 04:07:16;;;;;;;1.48;1.38;;;1.80;1.00;;;;;;5047919;28;20539;-75
2021/01/24 04:09:44;;;;;;;1.85;1.70;;;1.80;1.00;;;;;;5044374;28;20221;-72
2021/01/24 04:12:11;;;;;;;1.45;1.35;;;1.70;1.00;;;;;;5044955;28;20219;-73
2021/01/24 04:14:39;;;;;;;1.92;1.83;;;1.70;1.00;;;;;;5043140;28;20254;-73
2021/01/24 04:17:06;;;;;;;2.08;1.30;;;1.60;1.00;;;;;;5037298;28;20252;-74
2021/01/24 04:19:34;;;;;;;1.98;1.40;;;1.60;1.00;;;;;;5040926;28;20216;-72
2021/01/24 04:22:01;;;;;;;2.63;1.40;;;1.50;99.90;;;;;;5041760;28;20212;-73
2021/01/24 04:24:28;;;;;;;1.42;1.30;;;1.40;99.90;;;;;;5047738;28;20717;-74
2021/01/24 04:26:55;;;;;;;1.20;1.10;;;1.30;99.90;;;;;;5045021;28;20741;-74
2021/01/24 04:29:22;;;;;;;1.60;1.50;;;1.40;99.90;;;;;;5048252;28;20948;-75
2021/01/24 04:31:50;;;;;;;1.65;1.30;;;1.40;1.00;;;;;;5052091;28;20212;-74
2021/01/24 04:34:17;;;;;;;2.88;1.45;;;1.40;99.90;;;;;;5048480;28;20282;-74
2021/01/24 04:36:45;;;;;;;1.10;1.02;;;1.40;60.50;;;;;;5049429;28;20233;-74
2021/01/24 04:39:12;;;;;;;1.42;1.33;;;1.50;99.90;;;;;;5046277;28;20343;-73
2021/01/24 04:41:39;;;;;;;1.40;1.30;;;1.50;1.00;;;;;;5052220;28;20228;-73
2021/01/24 04:44:07;;;;;;;1.23;1.13;;;1.50;99.90;;;;;;5048534;28;20304;-74
2021/01/24 04:46:35;;;;;;;1.48;1.35;;;1.60;1.00;;;;;;5054754;28;20730;-73
2021/01/24 04:49:04;;;;;;;1.50;1.20;;;1.60;1.00;;;;;;5056555;28;20222;-73
2021/01/24 04:51:31;;;;;;;2.88;2.17;;;1.70;1.00;;;;;;5038504;28;20218;-74
2021/01/24 04:53:59;;;;;;;2.78;1.38;;;1.80;1.00;;;;;;5049223;28;20695;-73
2021/01/24 04:56:26;;;;;;;3.90;1.30;;;1.80;99.90;;;;;;5053439;28;20240;-73
2021/01/24 04:58:54;;;;;;;5.07;1.40;;;1.80;1.00;;;;;;5047666;28;20681;-73
2021/01/24 05:01:24;;;;;;;1.70;1.60;;;1.80;99.90;;;;;;5048831;28;20586;-73
2021/01/24 05:03:51;;;;;;;1.20;1.10;;;1.70;99.90;;;;;;5061658;28;20212;-73
2021/01/24 05:06:19;;;;;;;1.60;1.50;;;1.70;99.90;;;;;;5053475;28;20233;-73
2021/01/24 05:08:47;;;;;;;1.60;1.50;;;1.70;38.90;;;;;;5047518;28;20274;-73
2021/01/24 05:11:14;;;;;;;1.20;1.10;;;1.50;1.00;;;;;;5048609;28;20219;-73
2021/01/24 05:13:41;;;;;;;1.35;1.20;;;1.50;1.00;;;;;;5047648;28;20277;-75
2021/01/24 05:16:09;;;;;;;1.80;1.50;;;1.60;97.00;;;;;;5049398;28;20228;-74
2021/01/24 05:18:36;;;;;;;1.50;1.40;;;1.60;1.00;;;;;;5031296;28;20842;-74
2021/01/24 05:21:04;;;;;;;2.05;1.50;;;1.60;99.90;;;;;;5054988;28;20614;-74
2021/01/24 05:23:37;;;;;;;2.50;1.50;;;1.60;75.10;;;;;;5046075;28;20204;-76
2021/01/24 05:26:08;;;;;;;2.70;1.60;;;1.40;99.90;;;;;;5040041;28;20225;-75
2021/01/24 05:28:46;;;;;;;1.70;1.35;;;1.30;99.90;;;;;;5047939;28;20208;-75
2021/01/24 05:31:13;;;;;;;1.40;1.30;;;1.20;99.90;;;;;;5056928;28;20208;-75
2021/01/24 05:33:46;;;;;;;1.75;1.30;;;1.20;1.00;;;;;;5048746;28;20212;-74
2021/01/24 05:36:13;;;;;;;1.25;1.20;;;1.10;99.90;;;;;;5049404;28;20244;-75
2021/01/24 05:38:41;;;;;;;3.15;2.05;;;1.20;99.90;;;;;;5047973;28;20276;-74
2021/01/24 05:41:09;;;;;;;2.30;1.70;;;1.20;99.90;;;;;;5051652;28;20272;-75
2021/01/24 05:43:38;;;;;;;2.15;1.73;;;1.20;1.00;;;;;;5041382;28;20281;-75
2021/01/24 05:46:06;;;;;;;2.20;2.00;;;1.20;1.00;;;;;;5051039;28;22042;-74
2021/01/24 05:48:35;;;;;;;1.80;1.70;;;1.20;1.00;;;;;;5048575;28;20216;-74
2021/01/24 05:51:03;;;;;;;1.80;1.40;;;1.20;13.70;;;;;;5048456;28;20204;-74
2021/01/24 05:53:37;;;;;;;4.28;1.73;;;1.10;99.90;;;;;;5059242;28;20567;-74
2021/01/24 05:56:09;;;;;;;4.47;1.70;;;1.10;94.20;;;;;;5055540;28;20227;-74
2021/01/24 05:58:40;;;;;;;3.92;2.53;;;1.20;99.90;;;;;;5048040;28;20214;-74
2021/01/24 06:01:08;;;;;;;3.15;1.60;;;1.10;1.00;;;;;;5047484;28;20262;-74
2021/01/24 06:03:36;;;;;;;1.80;1.70;;;1.10;1.00;;;;;;5049676;28;20787;-74
2021/01/24 06:06:04;;;;;;;2.50;2.08;;;1.00;81.30;;;;;;5054790;28;20239;-75
2021/01/24 06:08:31;;;;;;;2.75;1.70;;;1.10;99.90;;;;;;5047534;28;20252;-75
2021/01/24 06:10:59;;;;;;;5.63;1.80;;;0.90;1.00;;;;;;5059918;28;20209;-74
2021/01/24 06:13:28;;;;;;;2.00;1.70;;;0.90;1.00;;;;;;5046806;28;20236;-74
2021/01/24 06:16:02;;;;;;;2.17;1.70;;;1.00;17.30;;;;;;5050626;28;21022;-74
2021/01/24 06:18:36;;;;;;;2.42;2.00;;;1.10;1.00;;;;;;5043037;28;20578;-73
2021/01/24 06:21:07;;;;;;;2.22;2.03;;;1.00;57.80;;;;;;5045975;28;20212;-75
2021/01/24 06:23:38;;;;;;;3.33;2.25;;;1.00;99.90;;;;;;5048936;28;20221;-74
2021/01/24 06:26:09;;;;;;;4.05;2.60;;;1.10;99.90;;;;;;5049599;28;20645;-74
2021/01/24 06:28:43;;;;;;;1.90;1.52;;;1.10;1.00;;;;;;5048903;28;20273;-74
2021/01/24 06:31:12;;;;;;;2.90;2.17;;;1.10;99.90;;;;;;5046762;28;20661;-75
2021/01/24 06:33:44;;;;;;;3.90;2.15;;;1.00;1.00;;;;;;5038686;28;20216;-74
2021/01/24 06:36:12;;;;;;;2.38;2.08;;;0.90;31.80;;;;;;5056368;28;20278;-74
2021/01/24 06:38:52;;;;;;;1.77;1.50;;;0.90;30.40;;;;;;5046612;28;20224;-75
2021/01/24 06:41:43;;;;;;;2.95;1.65;;;0.90;99.90;;;;;;5051971;28;20268;-76
2021/01/24 06:44:36;;;;;;;4.70;1.83;;;1.00;32.90;;;;;;5048674;28;20217;-74
2021/01/24 06:47:04;;;;;;;4.32;1.63;;;1.00;99.90;;;;;;5038300;28;20297;-74
2021/01/24 06:49:43;;;;;;;1.70;1.60;;;1.00;99.90;;;;;;5046036;28;20701;-74
2021/01/24 06:52:19;;;;;;;2.05;1.83;;;1.00;1.00;;;;;;5041146;28;20219;-74
2021/01/24 06:54:47;;;;;;;3.35;1.88;;;1.10;99.90;;;;;;5053797;28;20694;-74
2021/01/24 06:57:15;;;;;;;2.35;1.48;;;1.10;1.00;;;;;;5049550;28;20360;-74
2021/01/24 06:59:43;;;;;;;2.15;1.58;;;1.20;47.70;;;;;;5045775;28;20212;-75
2021/01/24 07:02:26;;;;;;;3.47;1.80;;;1.20;99.90;;;;;;5043239;28;20213;-73
2021/01/24 07:05:10;;;;;;;1.83;1.60;;;1.20;1.00;;;;;;5050635;28;20200;-75
2021/01/24 07:07:40;;;;;;;2.42;2.00;;;1.30;1.00;;;;;;5045764;28;20320;-75
2021/01/24 07:10:32;;;;;;;3.40;1.70;;;1.20;99.90;;;;;;5048023;28;20209;-76
2021/01/24 07:12:59;;;;;;;2.97;2.35;;;1.00;99.90;;;;;;5029695;28;20525;-74
2021/01/24 07:15:27;;;;;;;5.88;1.65;;;1.10;99.90;;;;;;5037512;28;20739;-75
2021/01/24 07:17:56;;;;;;;2.00;1.80;;;1.00;99.90;;;;;;5039824;28;20543;-76
2021/01/24 07:20:23;;;;;;;2.03;1.92;;;1.00;1.00;;;;;;5035979;28;20250;-74
2021/01/24 07:22:54;;;;;;;2.92;1.75;;;0.90;99.90;;;;;;5037741;28;21157;-75
2021/01/24 07:25:23;;;;;;;2.15;1.80;;;0.90;1.00;;;;;;5040264;28;20211;-75
2021/01/24 07:27:54;;;;;;;2.08;1.90;;;1.00;99.90;;;;;;5038685;28;20644;-73
2021/01/24 07:30:25;;;;;;;2.38;1.60;;;0.90;1.00;;;;;;5036594;28;20216;-73
2021/01/24 07:32:54;;;;;;;3.80;1.70;;;1.00;1.00;;;;;;5039526;28;20640;-73
2021/01/24 07:35:21;;;;;;;1.50;1.35;;;1.00;99.90;;;;;;5037353;28;20317;-74
2021/01/24 07:37:51;;;;;;;1.90;1.70;;;1.10;99.90;;;;;;5036296;28;21011;-75
2021/01/24 07:40:22;;;;;;;2.92;1.55;;;1.10;38.80;;;;;;5049397;28;20207;-74
2021/01/24 07:42:53;;;;;;;2.85;1.73;;;1.10;99.90;;;;;;5038501;28;20310;-74
2021/01/24 07:45:20;;;;;;;2.80;1.55;;;1.20;1.00;;;;;;5031778;28;20216;-74
2021/01/24 07:47:48;;;;;;;1.75;1.65;;;1.20;99.90;;;;;;5036965;28;20300;-75
2021/01/24 07:50:16;;;;;;;1.75;1.60;;;1.10;24.40;;;;;;5046179;28;20327;-74
2021/01/24 07:52:44;;;;;;;2.13;1.98;;;1.10;99.90;;;;;;5041857;28;20258;-73
2021/01/24 07:55:12;;;;;;;1.73;1.63;;;1.00;5.70;;;;;;5050511;28;20259;-74
2021/01/24 07:57:40;;;;;;;1.50;1.40;;;1.00;99.90;;;;;;5052312;28;20236;-74
2021/01/24 08:00:08;;;;;;;1.70;1.60;;;1.10;99.90;;;;;;5044712;28;20240;-75
2021/01/24 08:02:37;;;;;;;1.73;1.30;;;1.00;1.00;;;;;;5039520;28;20303;-74
2021/01/24 08:05:05;;;;;;;2.40;1.75;;;1.00;1.00;;;;;;5037640;28;20702;-74
2021/01/24 08:07:34;;;;;;;1.60;1.50;;;1.00;1.00;;;;;;5035616;28;20239;-76
2021/01/24 08:10:01;;;;;;;2.25;1.80;;;1.10;99.90;;;;;;5038265;28;20212;-74
2021/01/24 08:12:28;;;;;;;5.53;1.45;;;1.10;99.90;;;;;;5037254;28;20224;-74
2021/01/24 08:14:56;;;;;;;1.60;1.50;;;1.00;1.00;;;;;;5037661;28;20236;-74
2021/01/24 08:17:25;;;;;;;1.73;1.63;;;1.10;1.00;;;;;;5033260;28;20238;-72
2021/01/24 08:19:52;;;;;;;1.90;1.38;;;1.00;99.90;;;;;;5033225;28;20215;-73
2021/01/24 08:22:23;;;;;;;4.72;1.42;;;1.30;1.00;;;;;;5032554;28;20233;-72
2021/01/24 08:24:51;;;;;;;1.90;1.70;;;1.50;99.90;;;;;;5034286;28;20212;-73
2021/01/24 08:27:19;;;;;;;1.83;1.45;;;1.50;1.00;;;;;;5035133;28;20233;-73
2021/01/24 08:29:46;;;;;;;2.40;1.80;;;1.70;1.00;;;;;;5035612;28;20212;-73
2021/01/24 08:32:15;;;;;;;1.80;1.70;;;2.10;99.90;;;;;;5039843;28;20208;-74
2021/01/24 08:34:44;;;;;;;3.72;1.98;;;2.30;1.00;;;;;;5036887;28;20529;-73
2021/01/24 08:37:11;;;;;;;1.60;1.50;;;2.50;99.90;;;;;;5034198;28;20249;-74
2021/01/24 08:39:39;;;;;;;4.78;2.50;;;3.10;1.00;;;;;;5048216;28;20213;-74
2021/01/24 08:42:07;;;;;;;1.50;1.40;;;3.30;99.90;;;;;;5038530;28;20210;-75
2021/01/24 08:44:34;;;;;;;2.08;1.83;;;3.30;99.90;;;;;;5042306;28;20239;-74
2021/01/24 08:47:04;;;;;;;3.55;1.60;;;3.40;99.90;;;;;;5034787;28;20238;-73
2021/01/24 08:49:32;;;;;;;1.85;1.40;;;4.00;24.50;;;;;;5035418;28;20218;-75
2021/01/24 08:52:00;;;;;;;2.45;1.10;;;4.20;1.00;;;;;;5045620;28;20485;-73
2021/01/24 08:54:30;;;;;;;1.80;1.55;;;4.40;1.00;;;;;;5051339;28;20688;-75
2021/01/24 08:57:09;;;;;;;1.95;1.42;;;4.50;1.00;;;;;;5050425;28;20221;-74
2021/01/24 08:59:57;;;;;;;2.10;1.60;;;4.40;1.00;;;;;;5052554;28;20233;-74
2021/01/24 09:02:28;;;;;;;1.45;1.30;;;4.20;1.00;;;;;;5051757;28;20662;-74
2021/01/24 09:04:56;;;;;;;2.30;1.70;;;3.80;1.00;;;;;;5044441;28;20211;-74
2021/01/24 09:07:34;;;;;;;1.90;1.70;;;3.30;1.00;;;;;;5048310;28;20238;-74
2021/01/24 09:10:13;;;;;;;1.55;1.45;;;3.10;99.90;;;;;;5036119;28;20702;-73
2021/01/24 09:12:43;;;;;;;3.17;1.58;;;2.70;99.90;;;;;;5038053;28;20251;-74
2021/01/24 09:15:11;;;;;;;2.05;1.50;;;2.40;99.90;;;;;;5038516;28;20224;-74
2021/01/24 09:17:38;;;;;;;1.58;1.48;;;2.20;70.60;;;;;;5036136;28;20225;-73
2021/01/24 09:20:07;;;;;;;1.92;1.83;;;2.20;99.90;;;;;;5034021;28;20208;-75
2021/01/24 09:22:34;;;;;;;1.80;1.63;;;2.30;3.80;;;;;;5036460;28;20243;-73
2021/01/24 09:25:02;;;;;;;1.88;1.70;;;2.20;1.00;;;;;;5040551;28;20274;-73
2021/01/24 09:27:30;;;;;;;3.03;1.85;;;2.30;1.00;;;;;;5048447;28;20297;-74
2021/01/24 09:29:57;;;;;;;2.05;1.50;;;2.10;1.00;;;;;;5041421;28;20206;-73
2021/01/24 09:32:25;;;;;;;2.67;1.65;;;1.90;99.90;;;;;;5033449;28;20209;-74
2021/01/24 09:34:52;;;;;;;2.47;1.60;;;1.60;87.40;;;;;;5037055;28;20204;-73
2021/01/24 09:37:19;;;;;;;3.50;2.05;;;1.60;99.90;;;;;;5037677;28;20252;-74
2021/01/24 09:39:46;;;;;;;2.35;2.15;;;1.70;99.90;;;;;;5043703;28;21149;-75
2021/01/24 09:42:14;;;;;;;3.00;1.50;;;1.90;99.90;;;;;;5038776;28;20683;-74
2021/01/24 09:44:41;;;;;;;1.75;1.45;;;2.00;1.00;;;;;;5039955;28;20565;-74
2021/01/24 09:47:09;;;;;;;2.22;1.50;;;2.20;99.90;;;;;;5038121;28;20228;-76
2021/01/24 09:49:36;;;;;;;1.67;1.52;;;2.30;99.90;;;;;;5035037;28;20243;-75
2021/01/24 09:52:04;;;;;;;3.08;2.00;;;2.60;99.90;;;;;;5040233;28;20212;-75
2021/01/24 09:54:31;;;;;;;1.50;1.40;;;3.00;99.90;;;;;;5039108;28;20220;-74
2021/01/24 09:56:59;;;;;;;1.50;1.40;;;3.30;99.90;;;;;;5035208;28;20248;-74
2021/01/24 09:59:26;;;;;;;1.65;1.45;;;3.40;99.90;;;;;;5043210;28;20681;-74
2021/01/24 10:01:53;;;;;;;1.23;1.13;;;3.40;99.90;;;;;;5046522;28;20229;-75
2021/01/24 10:04:21;;;;;;;1.60;1.30;;;3.60;1.00;;;;;;5042501;28;20462;-76
2021/01/24 10:06:49;;;;;;;2.25;1.45;;;3.80;1.00;;;;;;5037255;28;20223;-77
2021/01/24 10:09:16;;;;;;;1.63;1.30;;;4.00;99.90;;;;;;5036062;28;20975;-77
2021/01/24 10:11:43;;;;;;;1.60;1.40;;;3.50;38.00;;;;;;5042301;28;20214;-75
2021/01/24 10:14:10;;;;;;;1.75;1.13;;;3.20;99.90;;;;;;5042502;28;20211;-75
2021/01/24 10:16:37;;;;;;;3.30;1.35;;;3.00;99.90;;;;;;5055484;28;20256;-76
2021/01/24 10:19:04;;;;;;;2.78;1.85;;;3.10;99.90;;;;;;5053316;28;20679;-77
2021/01/24 10:21:33;;;;;;;1.17;1.08;;;3.20;1.00;;;;;;5049896;28;20342;-75
2021/01/24 10:24:00;;;;;;;1.58;1.20;;;3.20;99.90;;;;;;5045788;28;20422;-75
2021/01/24 10:26:27;;;;;;;5.30;1.25;;;3.00;99.90;;;;;;5049124;28;20227;-75
2021/01/24 10:28:54;;;;;;;1.20;1.00;;;2.90;99.90;;;;;;5052601;28;20228;-76
2021/01/24 10:31:21;;;;;;;1.20;1.10;;;3.00;99.90;;;;;;5044886;28;21677;-76
2021/01/24 10:33:48;;;;;;;1.70;1.27;;;3.00;1.00;;;;;;5045066;28;20687;-74
2021/01/24 10:36:16;;;;;;;1.40;1.05;;;3.10;1.00;;;;;;5032938;28;20233;-74
2021/01/24 10:38:46;;;;;;;1.33;1.00;;;3.10;1.00;;;;;;5040723;28;20664;-74
2021/01/24 10:41:14;;;;;;;1.67;1.30;;;3.20;1.00;;;;;;5029974;28;20248;-74
2021/01/24 10:43:41;;;;;;;1.30;1.00;;;3.50;1.00;;;;;;5040185;28;20753;-75
2021/01/24 10:46:08;;;;;;;1.70;1.20;;;3.60;1.00;;;;;;5040284;28;20229;-75
2021/01/24 10:48:35;;;;;;;1.33;1.20;;;3.70;1.00;;;;;;5041045;28;20242;-76
2021/01/24 10:51:03;;;;;;;1.10;1.00;;;3.90;1.00;;;;;;5040971;28;20995;-73
2021/01/24 10:53:30;;;;;;;1.20;1.10;;;4.10;1.00;;;;;;5037599;28;21781;-75
2021/01/24 10:55:58;;;;;;;1.42;1.20;;;4.10;99.90;;;;;;5038452;28;20315;-75
2021/01/24 10:58:25;;;;;;;1.85;1.30;;;4.00;99.90;;;;;;5040554;28;20497;-76
2021/01/24 11:00:53;;;;;;;1.15;0.90;;;3.80;99.90;;;;;;5041095;28;20215;-75
2021/01/24 11:03:20;;;;;;;1.48;1.23;;;3.60;99.90;;;;;;5033776;28;20484;-75
2021/01/24 11:05:48;;;;;;;1.10;1.00;;;3.50;99.90;;;;;;5037856;28;20226;-74
2021/01/24 11:08:15;;;;;;;2.15;0.90;;;3.40;99.90;;;;;;5040695;28;20219;-75
2021/01/24 11:10:42;;;;;;;1.88;1.10;;;3.10;99.90;;;;;;5039985;28;20222;-76
2021/01/24 11:13:10;;;;;;;1.25;1.10;;;3.10;99.90;;;;;;5041663;28;20213;-75
2021/01/24 11:15:38;;;;;;;1.10;1.00;;;3.10;1.00;;;;;;5042964;28;20240;-74
2021/01/24 11:18:05;;;;;;;2.45;1.10;;;3.30;1.00;;;;;;5039279;28;20224;-75
2021/01/24 11:20:33;;;;;;;1.10;0.98;;;3.40;1.00;;;;;;5042898;28;20353;-78
2021/01/24 11:23:00;;;;;;;1.05;0.93;;;3.60;99.90;;;;;;5039468;28;20294;-75
2021/01/24 11:25:28;;;;;;;0.93;0.82;;;3.80;99.90;;;;;;5045935;28;20293;-75
2021/01/24 11:27:55;;;;;;;0.90;0.90;;;3.60;99.90;;;;;;5044345;28;20275;-77
2021/01/24 11:30:24;;;;;;;1.08;1.00;;;3.50;99.90;;;;;;5033284;28;20209;-77
2021/01/24 11:32:51;;;;;;;1.40;1.30;;;3.50;99.90;;;;;;5043757;28;20217;-76
2021/01/24 11:35:21;;;;;;;1.50;1.40;;;3.60;99.90;;;;;;5040209;28;20481;-75
2021/01/24 11:37:48;;;;;;;3.35;1.40;;;3.70;99.90;;;;;;5039452;28;20616;-74
2021/01/24 11:40:16;;;;;;;1.70;0.95;;;3.70;99.90;;;;;;5043561;28;20229;-72
2021/01/24 11:42:43;;;;;;;1.20;0.75;;;3.50;99.90;;;;;;5040881;28;20265;-73
2021/01/24 11:45:12;;;;;;;1.20;1.10;;;3.40;99.90;;;;;;5042931;28;20572;-72
2021/01/24 11:47:40;;;;;;;0.80;0.80;;;3.40;99.90;;;;;;5043942;28;20225;-73
2021/01/24 11:50:07;;;;;;;1.88;1.20;;;3.30;99.90;;;;;;5041516;28;20257;-73
2021/01/24 11:52:35;;;;;;;1.20;1.10;;;3.20;99.90;;;;;;5039526;28;20222;-73
2021/01/24 11:55:02;;;;;;;1.20;0.93;;;3.10;99.90;;;;;;5032678;28;20249;-72
2021/01/24 11:57:30;;;;;;;0.80;0.80;;;3.10;99.90;;;;;;5026347;28;20226;-73
2021/01/24 11:59:57;;;;;;;1.45;1.20;;;3.10;99.90;;;;;;5037274;28;20240;-73
2021/01/24 12:02:25;;;;;;;1.00;1.00;;;3.10;99.90;;;;;;5036459;28;20235;-74
2021/01/24 12:04:53;;;;;;;1.35;1.00;;;3.10;99.90;;;;;;5031969;28;20218;-73
2021/01/24 12:07:20;;;;;;;1.10;1.00;;;3.00;99.90;;;;;;5034859;28;20280;-74
2021/01/24 12:09:48;;;;;;;2.83;0.98;;;3.10;99.90;;;;;;5046729;28;20219;-73
2021/01/24 12:12:15;;;;;;;1.35;1.15;;;3.10;99.90;;;;;;5049988;28;20685;-74
2021/01/24 12:14:42;;;;;;;1.20;1.10;;;3.10;99.90;;;;;;5041491;28;20215;-73
2021/01/24 12:17:09;;;;;;;2.30;1.10;;;3.20;99.90;;;;;;5039414;28;20234;-72
2021/01/24 12:19:37;;;;;;;2.53;1.08;;;3.30;99.90;;;;;;5036708;28;20199;-72
2021/01/24 12:22:05;;;;;;;1.45;1.35;;;3.30;99.90;;;;;;5039944;28;20212;-74
2021/01/24 12:24:32;;;;;;;1.30;1.15;;;3.40;99.90;;;;;;5043433;28;20218;-73
2021/01/24 12:26:59;;;;;;;1.17;1.08;;;3.50;99.90;;;;;;5040269;28;20226;-72
2021/01/24 12:29:26;;;;;;;1.10;1.00;;;3.40;99.90;;;;;;5039650;28;20484;-72
2021/01/24 12:31:53;;;;;;;1.58;1.00;;;3.60;99.90;;;;;;5041127;28;20204;-72
2021/01/24 12:34:21;;;;;;;1.40;1.00;;;3.80;99.90;;;;;;5045229;28;20594;-73
2021/01/24 12:36:48;;;;;;;1.30;1.20;;;3.90;99.90;;;;;;5046605;28;20231;-73
2021/01/24 12:39:16;;;;;;;1.10;1.00;;;4.10;99.90;;;;;;5044066;28;20211;-73
2021/01/24 12:41:43;;;;;;;2.58;1.50;;;4.30;99.90;;;;;;5045774;28;20211;-73
2021/01/24 12:44:10;;;;;;;0.80;0.80;;;5.60;99.90;;;;;;5047006;28;20246;-73
2021/01/24 12:46:37;;;;;;;1.40;1.30;;;6.50;99.90;;;;;;5045594;28;20285;-73
2021/01/24 12:49:04;;;;;;;1.40;1.30;;;6.20;99.90;;;;;;5043344;28;20541;-72
2021/01/24 12:51:31;;;;;;;1.30;1.20;;;6.00;99.90;;;;;;5052487;28;20480;-73
2021/01/24 12:53:59;;;;;;;1.73;1.10;;;6.40;99.90;;;;;;5050698;28;20500;-73
2021/01/24 12:56:27;;;;;;;1.97;1.20;;;6.80;99.90;;;;;;5051266;28;20537;-72
2021/01/24 12:58:54;;;;;;;1.43;0.80;;;6.60;99.90;;;;;;5051554;28;20509;-73
2021/01/24 13:01:21;;;;;;;1.00;0.93;;;6.40;99.90;;;;;;5049342;28;20710;-73
2021/01/24 13:03:48;;;;;;;1.73;0.90;;;6.20;99.90;;;;;;5040864;28;20520;-73
2021/01/24 13:06:15;;;;;;;1.90;1.10;;;6.00;99.90;;;;;;5051912;28;20528;-73
2021/01/24 13:08:42;;;;;;;1.00;0.90;;;6.20;99.90;;;;;;5051486;28;20813;-73